AAL1368 KCLT-KLGA
Flight info
| Callsign | AAL1368 |
|---|---|
| Flight time | 1h 14m |
| Altitude | 33000 |
| Route | KILNS5 AUDII DCT NOWAE Q87 HURTS PROUD2 |
| Aircraft | A320/M-DGVW/C |
Departure
| Time | 2026-05-06 20:25 |
|---|---|
| Airport | Charlotte Douglas International Airport (KCLT) |
Arrival
| Time | 2026-05-06 21:39 |
|---|---|
| Airport | LaGuardia Airport (KLGA) |
| Time | Latitude | Longitude | Altitude | Speed | Heading |
|---|---|---|---|---|---|
| 2026-05-06 20:14 | 35.21825 | -80.94162 | 741 ft | 0 kts | 258° |
| 2026-05-06 20:16 | 35.21826 | -80.94156 | 741 ft | 1 kts | 258° |
| 2026-05-06 20:16 | 35.21828 | -80.94146 | 738 ft | 1 kts | 258° |
| 2026-05-06 20:17 | 35.21830 | -80.94136 | 740 ft | 1 kts | 259° |
| 2026-05-06 20:17 | 35.21832 | -80.94123 | 740 ft | 2 kts | 261° |
| 2026-05-06 20:17 | 35.21834 | -80.94107 | 740 ft | 2 kts | 287° |
| 2026-05-06 20:17 | 35.21828 | -80.94093 | 739 ft | 2 kts | 327° |
| 2026-05-06 20:18 | 35.21817 | -80.94087 | 739 ft | 2 kts | 351° |
| 2026-05-06 20:18 | 35.21804 | -80.94085 | 739 ft | 2 kts | 7° |
| 2026-05-06 20:18 | 35.21794 | -80.94087 | 740 ft | 0 kts | 17° |
| 2026-05-06 20:20 | 35.21803 | -80.94081 | 740 ft | 5 kts | 29° |
| 2026-05-06 20:20 | 35.21827 | -80.94016 | 742 ft | 12 kts | 73° |
| 2026-05-06 20:21 | 35.21851 | -80.93914 | 742 ft | 12 kts | 74° |
| 2026-05-06 20:21 | 35.21894 | -80.93824 | 743 ft | 13 kts | 49° |
| 2026-05-06 20:21 | 35.21952 | -80.93737 | 744 ft | 12 kts | 42° |
| 2026-05-06 20:21 | 35.22026 | -80.93714 | 746 ft | 12 kts | 2° |
| 2026-05-06 20:22 | 35.22085 | -80.93717 | 747 ft | 13 kts | 354° |
| 2026-05-06 20:22 | 35.22183 | -80.93725 | 749 ft | 15 kts | 356° |
| 2026-05-06 20:22 | 35.22291 | -80.93733 | 750 ft | 16 kts | 356° |
| 2026-05-06 20:22 | 35.22419 | -80.93743 | 753 ft | 19 kts | 358° |
| 2026-05-06 20:23 | 35.22503 | -80.93734 | 754 ft | 2 kts | 57° |
| 2026-05-06 20:23 | 35.22511 | -80.93712 | 754 ft | 5 kts | 72° |
| 2026-05-06 20:23 | 35.22512 | -80.93648 | 754 ft | 9 kts | 97° |
| 2026-05-06 20:23 | 35.22453 | -80.93612 | 751 ft | 11 kts | 178° |
| 2026-05-06 20:24 | 35.22411 | -80.93611 | 751 ft | 5 kts | 177° |
| 2026-05-06 20:24 | 35.22342 | -80.93606 | 751 ft | 28 kts | 176° |
| 2026-05-06 20:24 | 35.21843 | -80.93567 | 747 ft | 112 kts | 175° |
| 2026-05-06 20:24 | 35.20874 | -80.93477 | 978 ft | 149 kts | 182° |
| 2026-05-06 20:25 | 35.19894 | -80.93369 | 1914 ft | 139 kts | 181° |
| 2026-05-06 20:25 | 35.18894 | -80.93210 | 2540 ft | 153 kts | 178° |
| 2026-05-06 20:25 | 35.17748 | -80.92988 | 3009 ft | 180 kts | 177° |
| 2026-05-06 20:25 | 35.16412 | -80.92537 | 3457 ft | 217 kts | 153° |
| 2026-05-06 20:26 | 35.15419 | -80.91082 | 4296 ft | 240 kts | 114° |
| 2026-05-06 20:26 | 35.15311 | -80.89016 | 5114 ft | 260 kts | 80° |
| 2026-05-06 20:26 | 35.15890 | -80.86846 | 5947 ft | 267 kts | 65° |
| 2026-05-06 20:26 | 35.16709 | -80.84821 | 6750 ft | 263 kts | 59° |
| 2026-05-06 20:27 | 35.17558 | -80.82913 | 7526 ft | 256 kts | 58° |
| 2026-05-06 20:27 | 35.18391 | -80.81022 | 8229 ft | 249 kts | 59° |
| 2026-05-06 20:27 | 35.19206 | -80.79135 | 8649 ft | 257 kts | 59° |
| 2026-05-06 20:27 | 35.20032 | -80.77112 | 8981 ft | 278 kts | 61° |
| 2026-05-06 20:28 | 35.20873 | -80.74961 | 9516 ft | 283 kts | 62° |
| 2026-05-06 20:28 | 35.21721 | -80.72751 | 10064 ft | 290 kts | 62° |
| 2026-05-06 20:28 | 35.22578 | -80.70491 | 10559 ft | 296 kts | 62° |
| 2026-05-06 20:28 | 35.23450 | -80.68177 | 11059 ft | 303 kts | 62° |
| 2026-05-06 20:29 | 35.24340 | -80.65812 | 11571 ft | 309 kts | 61° |
| 2026-05-06 20:29 | 35.25244 | -80.63406 | 12089 ft | 315 kts | 61° |
| 2026-05-06 20:29 | 35.26168 | -80.60942 | 12615 ft | 321 kts | 61° |
| 2026-05-06 20:29 | 35.27107 | -80.58438 | 13151 ft | 326 kts | 61° |
| 2026-05-06 20:30 | 35.28059 | -80.55892 | 13695 ft | 331 kts | 61° |
| 2026-05-06 20:30 | 35.30000 | -80.50701 | 14675 ft | 340 kts | 60° |
| 2026-05-06 20:30 | 35.30993 | -80.48043 | 15177 ft | 345 kts | 60° |
| 2026-05-06 20:31 | 35.31995 | -80.45357 | 15679 ft | 349 kts | 60° |
| 2026-05-06 20:31 | 35.33009 | -80.42643 | 16195 ft | 352 kts | 60° |
| 2026-05-06 20:31 | 35.34032 | -80.39901 | 16718 ft | 355 kts | 60° |
| 2026-05-06 20:31 | 35.35059 | -80.37143 | 17254 ft | 358 kts | 60° |
| 2026-05-06 20:32 | 35.36086 | -80.34383 | 17798 ft | 361 kts | 60° |
| 2026-05-06 20:32 | 35.37131 | -80.31579 | 18343 ft | 363 kts | 60° |
| 2026-05-06 20:32 | 35.38183 | -80.28750 | 18825 ft | 365 kts | 60° |
| 2026-05-06 20:32 | 35.39240 | -80.25907 | 19320 ft | 366 kts | 60° |
| 2026-05-06 20:33 | 35.40298 | -80.23057 | 19814 ft | 368 kts | 60° |
| 2026-05-06 20:33 | 35.41360 | -80.20197 | 20311 ft | 370 kts | 60° |
| 2026-05-06 20:33 | 35.42423 | -80.17322 | 20825 ft | 371 kts | 60° |
| 2026-05-06 20:33 | 35.43467 | -80.14418 | 21339 ft | 372 kts | 63° |
| 2026-05-06 20:34 | 35.44428 | -80.11465 | 21872 ft | 373 kts | 65° |
| 2026-05-06 20:34 | 35.45323 | -80.08518 | 22271 ft | 378 kts | 65° |
| 2026-05-06 20:34 | 35.46227 | -80.05453 | 22557 ft | 386 kts | 66° |
| 2026-05-06 20:34 | 35.47144 | -80.02326 | 22845 ft | 393 kts | 66° |
| 2026-05-06 20:35 | 35.48085 | -79.99152 | 23130 ft | 400 kts | 66° |
| 2026-05-06 20:35 | 35.49060 | -79.95905 | 23419 ft | 408 kts | 66° |
| 2026-05-06 20:35 | 35.50055 | -79.92623 | 23674 ft | 415 kts | 65° |
| 2026-05-06 20:35 | 35.51077 | -79.89271 | 23921 ft | 423 kts | 66° |
| 2026-05-06 20:36 | 35.52119 | -79.85859 | 24171 ft | 430 kts | 66° |
| 2026-05-06 20:36 | 35.53177 | -79.82391 | 24420 ft | 438 kts | 66° |
| 2026-05-06 20:36 | 35.54259 | -79.78870 | 24672 ft | 445 kts | 66° |
| 2026-05-06 20:36 | 35.55374 | -79.75298 | 24923 ft | 452 kts | 65° |
| 2026-05-06 20:37 | 35.56520 | -79.71655 | 25184 ft | 459 kts | 66° |
| 2026-05-06 20:37 | 35.57666 | -79.68016 | 25439 ft | 465 kts | 66° |
| 2026-05-06 20:37 | 35.58840 | -79.64278 | 25699 ft | 471 kts | 66° |
| 2026-05-06 20:37 | 35.60023 | -79.60490 | 25966 ft | 477 kts | 66° |
| 2026-05-06 20:38 | 35.61217 | -79.56657 | 26229 ft | 482 kts | 66° |
| 2026-05-06 20:38 | 35.62418 | -79.52792 | 26496 ft | 487 kts | 66° |
| 2026-05-06 20:38 | 35.63630 | -79.48888 | 26758 ft | 492 kts | 66° |
| 2026-05-06 20:38 | 35.64851 | -79.44936 | 27030 ft | 496 kts | 66° |
| 2026-05-06 20:39 | 35.66079 | -79.40950 | 27315 ft | 500 kts | 66° |
| 2026-05-06 20:39 | 35.67316 | -79.36932 | 27597 ft | 504 kts | 67° |
| 2026-05-06 20:39 | 35.68560 | -79.32889 | 27870 ft | 507 kts | 67° |
| 2026-05-06 20:39 | 35.69856 | -79.28844 | 28149 ft | 509 kts | 61° |
| 2026-05-06 20:40 | 35.71725 | -79.25191 | 28441 ft | 504 kts | 47° |
| 2026-05-06 20:40 | 35.74092 | -79.22112 | 28729 ft | 498 kts | 36° |
| 2026-05-06 20:40 | 35.76860 | -79.19509 | 29015 ft | 494 kts | 27° |
| 2026-05-06 20:40 | 35.79743 | -79.17291 | 29311 ft | 493 kts | 24° |
| 2026-05-06 20:41 | 35.82707 | -79.15141 | 29611 ft | 495 kts | 24° |
| 2026-05-06 20:41 | 35.85657 | -79.12909 | 29917 ft | 499 kts | 26° |
| 2026-05-06 20:41 | 35.88551 | -79.10523 | 30188 ft | 502 kts | 29° |
| 2026-05-06 20:41 | 35.91389 | -79.07983 | 30448 ft | 505 kts | 31° |
| 2026-05-06 20:42 | 35.94185 | -79.05338 | 30700 ft | 507 kts | 31° |
| 2026-05-06 20:42 | 35.96963 | -79.02652 | 30971 ft | 507 kts | 31° |
| 2026-05-06 20:42 | 35.99736 | -78.99975 | 31234 ft | 507 kts | 31° |
| 2026-05-06 20:42 | 36.02543 | -78.97308 | 31497 ft | 507 kts | 30° |
| 2026-05-06 20:43 | 36.05352 | -78.94690 | 31769 ft | 506 kts | 29° |
| 2026-05-06 20:43 | 36.08141 | -78.92124 | 32027 ft | 505 kts | 28° |
| 2026-05-06 20:43 | 36.10960 | -78.89547 | 32301 ft | 504 kts | 28° |
| 2026-05-06 20:43 | 36.13797 | -78.86951 | 32576 ft | 504 kts | 28° |
| 2026-05-06 20:44 | 36.16610 | -78.84363 | 32858 ft | 504 kts | 28° |
| 2026-05-06 20:44 | 36.19368 | -78.81645 | 32958 ft | 516 kts | 37° |
| 2026-05-06 20:44 | 36.21721 | -78.78187 | 32980 ft | 534 kts | 50° |
| 2026-05-06 20:44 | 36.23565 | -78.74126 | 32980 ft | 547 kts | 61° |
| 2026-05-06 20:45 | 36.24914 | -78.69681 | 32956 ft | 555 kts | 69° |
| 2026-05-06 20:45 | 36.26927 | -78.60464 | 32946 ft | 558 kts | 71° |
| 2026-05-06 20:46 | 36.29221 | -78.51378 | 32934 ft | 539 kts | 65° |
| 2026-05-06 20:46 | 36.30552 | -78.47100 | 32943 ft | 527 kts | 63° |
| 2026-05-06 20:46 | 36.31959 | -78.42914 | 32944 ft | 523 kts | 62° |
| 2026-05-06 20:47 | 36.34781 | -78.34623 | 32952 ft | 522 kts | 63° |
| 2026-05-06 20:47 | 36.37630 | -78.26367 | 32959 ft | 514 kts | 53° |
| 2026-05-06 20:47 | 36.39675 | -78.22814 | 32965 ft | 500 kts | 39° |
| 2026-05-06 20:48 | 36.42124 | -78.19782 | 32968 ft | 495 kts | 36° |
| 2026-05-06 20:48 | 36.47133 | -78.13901 | 32978 ft | 494 kts | 35° |
| 2026-05-06 20:49 | 36.52138 | -78.08099 | 32989 ft | 495 kts | 35° |
| 2026-05-06 20:49 | 36.57154 | -78.02225 | 32993 ft | 496 kts | 36° |
| 2026-05-06 20:50 | 36.62167 | -77.96303 | 32996 ft | 497 kts | 36° |
| 2026-05-06 20:50 | 36.67165 | -77.90366 | 32992 ft | 497 kts | 36° |
| 2026-05-06 20:51 | 36.72181 | -77.84418 | 32959 ft | 497 kts | 36° |
| 2026-05-06 20:51 | 36.77194 | -77.78464 | 32953 ft | 498 kts | 36° |
| 2026-05-06 20:52 | 36.82209 | -77.72496 | 32953 ft | 499 kts | 36° |
| 2026-05-06 20:52 | 36.87237 | -77.66518 | 32957 ft | 499 kts | 36° |
| 2026-05-06 20:53 | 36.92267 | -77.60525 | 32956 ft | 500 kts | 36° |
| 2026-05-06 20:53 | 36.97291 | -77.54517 | 32951 ft | 500 kts | 36° |
| 2026-05-06 20:54 | 37.02317 | -77.48487 | 32958 ft | 500 kts | 37° |
| 2026-05-06 20:54 | 37.07337 | -77.42456 | 32951 ft | 500 kts | 37° |
| 2026-05-06 20:55 | 37.12367 | -77.36415 | 32956 ft | 501 kts | 37° |
| 2026-05-06 20:55 | 37.17358 | -77.30416 | 32941 ft | 501 kts | 37° |
| 2026-05-06 20:56 | 37.22392 | -77.24338 | 32944 ft | 501 kts | 37° |
| 2026-05-06 20:56 | 37.27412 | -77.18259 | 32930 ft | 502 kts | 37° |
| 2026-05-06 20:57 | 37.32441 | -77.12178 | 32926 ft | 502 kts | 37° |
| 2026-05-06 20:57 | 37.37474 | -77.06078 | 32924 ft | 503 kts | 37° |
| 2026-05-06 20:58 | 37.42504 | -76.99957 | 32930 ft | 503 kts | 37° |
| 2026-05-06 20:58 | 37.47806 | -76.94410 | 32924 ft | 483 kts | 18° |
| 2026-05-06 20:59 | 37.53772 | -76.90601 | 32915 ft | 483 kts | 19° |
| 2026-05-06 20:59 | 37.59707 | -76.86582 | 32909 ft | 485 kts | 19° |
| 2026-05-06 21:00 | 37.65646 | -76.82538 | 32907 ft | 485 kts | 19° |
| 2026-05-06 21:00 | 37.71607 | -76.78542 | 32906 ft | 486 kts | 19° |
| 2026-05-06 21:01 | 37.77597 | -76.74556 | 32912 ft | 487 kts | 19° |
| 2026-05-06 21:01 | 37.83594 | -76.70542 | 32909 ft | 488 kts | 19° |
| 2026-05-06 21:02 | 37.89565 | -76.66554 | 32910 ft | 488 kts | 18° |
| 2026-05-06 21:02 | 37.95672 | -76.62676 | 32909 ft | 487 kts | 16° |
| 2026-05-06 21:03 | 38.01729 | -76.58913 | 32893 ft | 488 kts | 16° |
| 2026-05-06 21:03 | 38.07824 | -76.55069 | 32890 ft | 490 kts | 17° |
| 2026-05-06 21:04 | 38.13919 | -76.51179 | 32886 ft | 490 kts | 16° |
| 2026-05-06 21:04 | 38.20011 | -76.47284 | 32879 ft | 491 kts | 16° |
| 2026-05-06 21:05 | 38.26116 | -76.43368 | 32873 ft | 491 kts | 16° |
| 2026-05-06 21:05 | 38.31998 | -76.38680 | 32883 ft | 505 kts | 28° |
| 2026-05-06 21:05 | 38.34747 | -76.35990 | 32845 ft | 492 kts | 27° |
| 2026-05-06 21:06 | 38.37419 | -76.33370 | 32413 ft | 488 kts | 27° |
| 2026-05-06 21:06 | 38.40094 | -76.30749 | 31991 ft | 484 kts | 27° |
| 2026-05-06 21:06 | 38.42760 | -76.28144 | 31575 ft | 480 kts | 27° |
| 2026-05-06 21:06 | 38.45399 | -76.25569 | 31158 ft | 477 kts | 27° |
| 2026-05-06 21:07 | 38.48033 | -76.22997 | 30761 ft | 474 kts | 27° |
| 2026-05-06 21:07 | 38.50646 | -76.20441 | 30368 ft | 473 kts | 27° |
| 2026-05-06 21:07 | 38.53260 | -76.17880 | 29970 ft | 474 kts | 28° |
| 2026-05-06 21:07 | 38.55875 | -76.15314 | 29511 ft | 474 kts | 28° |
| 2026-05-06 21:08 | 38.58490 | -76.12745 | 29055 ft | 474 kts | 28° |
| 2026-05-06 21:08 | 38.61106 | -76.10175 | 28600 ft | 475 kts | 28° |
| 2026-05-06 21:08 | 38.63727 | -76.07602 | 28159 ft | 475 kts | 27° |
| 2026-05-06 21:08 | 38.66365 | -76.05074 | 27726 ft | 473 kts | 27° |
| 2026-05-06 21:09 | 38.69017 | -76.02595 | 27289 ft | 473 kts | 26° |
| 2026-05-06 21:09 | 38.71694 | -76.00128 | 26864 ft | 473 kts | 26° |
| 2026-05-06 21:09 | 38.74364 | -75.97679 | 26449 ft | 473 kts | 26° |
| 2026-05-06 21:09 | 38.77035 | -75.95219 | 26038 ft | 473 kts | 26° |
| 2026-05-06 21:10 | 38.79675 | -75.92765 | 25637 ft | 474 kts | 27° |
| 2026-05-06 21:10 | 38.82336 | -75.90273 | 25242 ft | 475 kts | 27° |
| 2026-05-06 21:10 | 38.84141 | -75.88575 | 24975 ft | 475 kts | 27° |
| 2026-05-06 21:10 | 38.87660 | -75.85249 | 24458 ft | 475 kts | 27° |
| 2026-05-06 21:11 | 38.89447 | -75.83559 | 24200 ft | 484 kts | 27° |
| 2026-05-06 21:11 | 38.92201 | -75.80972 | 23922 ft | 495 kts | 28° |
| 2026-05-06 21:11 | 38.94994 | -75.78351 | 23722 ft | 496 kts | 28° |
| 2026-05-06 21:11 | 38.97754 | -75.75743 | 23347 ft | 487 kts | 28° |
| 2026-05-06 21:12 | 39.00457 | -75.73173 | 22831 ft | 480 kts | 28° |
| 2026-05-06 21:12 | 39.03118 | -75.70637 | 22345 ft | 472 kts | 28° |
| 2026-05-06 21:12 | 39.05734 | -75.68149 | 21845 ft | 466 kts | 28° |
| 2026-05-06 21:12 | 39.08336 | -75.65681 | 21365 ft | 460 kts | 28° |
| 2026-05-06 21:13 | 39.11727 | -75.62472 | 20740 ft | 454 kts | 28° |
| 2026-05-06 21:13 | 39.13447 | -75.60841 | 20420 ft | 452 kts | 29° |
| 2026-05-06 21:13 | 39.15967 | -75.58445 | 19966 ft | 448 kts | 29° |
| 2026-05-06 21:13 | 39.18432 | -75.56097 | 19519 ft | 445 kts | 29° |
| 2026-05-06 21:14 | 39.20918 | -75.53733 | 19076 ft | 443 kts | 30° |
| 2026-05-06 21:14 | 39.23391 | -75.51380 | 18636 ft | 440 kts | 30° |
| 2026-05-06 21:14 | 39.25863 | -75.49091 | 18207 ft | 435 kts | 28° |
| 2026-05-06 21:14 | 39.28343 | -75.46877 | 17724 ft | 432 kts | 28° |
| 2026-05-06 21:15 | 39.30814 | -75.44722 | 17233 ft | 428 kts | 27° |
| 2026-05-06 21:15 | 39.33280 | -75.42585 | 16750 ft | 424 kts | 28° |
| 2026-05-06 21:15 | 39.35708 | -75.40466 | 16278 ft | 420 kts | 28° |
| 2026-05-06 21:15 | 39.38112 | -75.38352 | 15823 ft | 416 kts | 28° |
| 2026-05-06 21:16 | 39.40490 | -75.36244 | 15347 ft | 412 kts | 28° |
| 2026-05-06 21:16 | 39.42839 | -75.34150 | 14903 ft | 409 kts | 29° |
| 2026-05-06 21:16 | 39.45172 | -75.32065 | 14451 ft | 406 kts | 29° |
| 2026-05-06 21:16 | 39.47489 | -75.29989 | 14004 ft | 403 kts | 29° |
| 2026-05-06 21:17 | 39.49784 | -75.27932 | 13561 ft | 400 kts | 29° |
| 2026-05-06 21:17 | 39.50565 | -75.27232 | 13390 ft | 398 kts | 29° |
| 2026-05-06 21:17 | 39.52827 | -75.25175 | 12894 ft | 396 kts | 30° |
| 2026-05-06 21:17 | 39.55058 | -75.23099 | 12419 ft | 393 kts | 31° |
| 2026-05-06 21:18 | 39.57264 | -75.21023 | 11936 ft | 390 kts | 31° |
| 2026-05-06 21:18 | 39.59450 | -75.18954 | 11467 ft | 388 kts | 31° |
| 2026-05-06 21:18 | 39.61621 | -75.16898 | 11009 ft | 385 kts | 31° |
| 2026-05-06 21:18 | 39.63747 | -75.14887 | 10546 ft | 382 kts | 31° |
| 2026-05-06 21:19 | 39.65895 | -75.12865 | 10098 ft | 380 kts | 31° |
| 2026-05-06 21:19 | 39.68013 | -75.10878 | 9866 ft | 370 kts | 31° |
| 2026-05-06 21:19 | 39.70097 | -75.09005 | 9855 ft | 362 kts | 29° |
| 2026-05-06 21:19 | 39.72197 | -75.07198 | 9862 ft | 362 kts | 28° |
| 2026-05-06 21:20 | 39.74308 | -75.05417 | 9862 ft | 362 kts | 27° |
| 2026-05-06 21:20 | 39.76421 | -75.03642 | 9858 ft | 362 kts | 28° |
| 2026-05-06 21:20 | 39.78534 | -75.01852 | 9861 ft | 362 kts | 28° |
| 2026-05-06 21:20 | 39.80641 | -75.00055 | 9853 ft | 362 kts | 28° |
| 2026-05-06 21:21 | 39.82751 | -74.98244 | 9852 ft | 362 kts | 28° |
| 2026-05-06 21:21 | 39.84848 | -74.96435 | 9852 ft | 362 kts | 28° |
| 2026-05-06 21:21 | 39.86946 | -74.94589 | 9851 ft | 363 kts | 30° |
| 2026-05-06 21:21 | 39.89015 | -74.92714 | 9852 ft | 363 kts | 30° |
| 2026-05-06 21:22 | 39.91086 | -74.90815 | 9851 ft | 365 kts | 30° |
| 2026-05-06 21:22 | 39.93104 | -74.88628 | 9856 ft | 388 kts | 40° |
| 2026-05-06 21:22 | 39.95012 | -74.86093 | 9848 ft | 393 kts | 44° |
| 2026-05-06 21:22 | 39.96856 | -74.83450 | 9852 ft | 395 kts | 45° |
| 2026-05-06 21:23 | 39.98674 | -74.80752 | 9853 ft | 396 kts | 46° |
| 2026-05-06 21:23 | 40.00486 | -74.78047 | 9857 ft | 396 kts | 46° |
| 2026-05-06 21:23 | 40.02309 | -74.75349 | 9849 ft | 396 kts | 45° |
| 2026-05-06 21:23 | 40.04140 | -74.72675 | 9837 ft | 396 kts | 45° |
| 2026-05-06 21:24 | 40.05989 | -74.70003 | 9841 ft | 396 kts | 45° |
| 2026-05-06 21:24 | 40.07843 | -74.67346 | 9832 ft | 396 kts | 44° |
| 2026-05-06 21:24 | 40.09709 | -74.64679 | 9549 ft | 395 kts | 44° |
| 2026-05-06 21:24 | 40.11548 | -74.62041 | 9232 ft | 391 kts | 45° |
| 2026-05-06 21:25 | 40.13371 | -74.59417 | 8911 ft | 388 kts | 45° |
| 2026-05-06 21:25 | 40.15153 | -74.56848 | 8573 ft | 385 kts | 45° |
| 2026-05-06 21:25 | 40.16942 | -74.54268 | 8248 ft | 382 kts | 45° |
| 2026-05-06 21:25 | 40.18719 | -74.51703 | 8023 ft | 379 kts | 45° |
| 2026-05-06 21:26 | 40.20509 | -74.49127 | 7825 ft | 377 kts | 44° |
| 2026-05-06 21:26 | 40.22330 | -74.46674 | 7624 ft | 375 kts | 41° |
| 2026-05-06 21:26 | 40.24178 | -74.44328 | 7440 ft | 373 kts | 40° |
| 2026-05-06 21:26 | 40.26050 | -74.42019 | 7252 ft | 370 kts | 40° |
| 2026-05-06 21:27 | 40.27946 | -74.39700 | 7046 ft | 371 kts | 39° |
| 2026-05-06 21:27 | 40.29803 | -74.37414 | 6861 ft | 368 kts | 40° |
| 2026-05-06 21:27 | 40.31664 | -74.35098 | 6662 ft | 366 kts | 40° |
| 2026-05-06 21:27 | 40.33499 | -74.32790 | 6466 ft | 364 kts | 40° |
| 2026-05-06 21:28 | 40.35309 | -74.30491 | 6283 ft | 362 kts | 41° |
| 2026-05-06 21:28 | 40.37115 | -74.28190 | 6084 ft | 361 kts | 40° |
| 2026-05-06 21:28 | 40.38908 | -74.25906 | 5890 ft | 359 kts | 41° |
| 2026-05-06 21:28 | 40.40695 | -74.23628 | 5670 ft | 357 kts | 40° |
| 2026-05-06 21:29 | 40.42472 | -74.21368 | 5483 ft | 356 kts | 41° |
| 2026-05-06 21:29 | 40.44247 | -74.19105 | 5269 ft | 355 kts | 40° |
| 2026-05-06 21:29 | 40.46005 | -74.16864 | 5067 ft | 354 kts | 41° |
| 2026-05-06 21:29 | 40.47767 | -74.14617 | 4870 ft | 352 kts | 41° |
| 2026-05-06 21:30 | 40.49517 | -74.12388 | 4672 ft | 350 kts | 41° |
| 2026-05-06 21:30 | 40.51245 | -74.10187 | 4470 ft | 341 kts | 40° |
| 2026-05-06 21:30 | 40.53063 | -74.08299 | 4263 ft | 327 kts | 32° |
| 2026-05-06 21:30 | 40.54966 | -74.06767 | 4095 ft | 315 kts | 21° |
| 2026-05-06 21:31 | 40.56919 | -74.05676 | 3988 ft | 301 kts | 16° |
| 2026-05-06 21:31 | 40.58902 | -74.04852 | 4002 ft | 291 kts | 9° |
| 2026-05-06 21:31 | 40.60838 | -74.04247 | 4010 ft | 290 kts | 7° |
| 2026-05-06 21:31 | 40.62805 | -74.03652 | 4015 ft | 290 kts | 8° |
| 2026-05-06 21:32 | 40.64771 | -74.03067 | 4006 ft | 290 kts | 7° |
| 2026-05-06 21:32 | 40.68733 | -74.01889 | 4002 ft | 290 kts | 7° |
| 2026-05-06 21:32 | 40.70684 | -74.01300 | 3837 ft | 284 kts | 7° |
| 2026-05-06 21:33 | 40.72629 | -74.00715 | 3271 ft | 292 kts | 7° |
| 2026-05-06 21:33 | 40.74597 | -74.00114 | 3035 ft | 285 kts | 8° |
| 2026-05-06 21:33 | 40.76506 | -73.99533 | 3003 ft | 280 kts | 10° |
| 2026-05-06 21:33 | 40.78293 | -73.98476 | 3015 ft | 285 kts | 25° |
| 2026-05-06 21:34 | 40.80001 | -73.97137 | 2982 ft | 284 kts | 27° |
| 2026-05-06 21:34 | 40.81699 | -73.95785 | 2984 ft | 284 kts | 27° |
| 2026-05-06 21:34 | 40.83381 | -73.94437 | 2983 ft | 285 kts | 27° |
| 2026-05-06 21:34 | 40.85056 | -73.93092 | 2983 ft | 284 kts | 27° |
| 2026-05-06 21:35 | 40.86733 | -73.91756 | 2982 ft | 284 kts | 27° |
| 2026-05-06 21:35 | 40.88457 | -73.90384 | 2983 ft | 282 kts | 27° |
| 2026-05-06 21:35 | 40.90007 | -73.88915 | 2871 ft | 278 kts | 46° |
| 2026-05-06 21:35 | 40.90911 | -73.86683 | 2623 ft | 277 kts | 79° |
| 2026-05-06 21:36 | 40.90876 | -73.84190 | 2344 ft | 271 kts | 110° |
| 2026-05-06 21:36 | 40.89958 | -73.82116 | 2122 ft | 253 kts | 142° |
| 2026-05-06 21:36 | 40.88553 | -73.80950 | 2031 ft | 229 kts | 169° |
| 2026-05-06 21:36 | 40.87053 | -73.80679 | 1869 ft | 210 kts | 191° |
| 2026-05-06 21:37 | 40.85704 | -73.81163 | 1657 ft | 197 kts | 212° |
| 2026-05-06 21:37 | 40.84563 | -73.82080 | 1439 ft | 190 kts | 216° |
| 2026-05-06 21:37 | 40.83461 | -73.82994 | 1168 ft | 182 kts | 214° |
| 2026-05-06 21:37 | 40.82433 | -73.83845 | 938 ft | 164 kts | 214° |
| 2026-05-06 21:38 | 40.81511 | -73.84609 | 733 ft | 152 kts | 213° |
| 2026-05-06 21:38 | 40.80639 | -73.85330 | 533 ft | 147 kts | 212° |
| 2026-05-06 21:38 | 40.79784 | -73.86055 | 307 ft | 146 kts | 211° |
| 2026-05-06 21:38 | 40.78906 | -73.86770 | 142 ft | 148 kts | 210° |
| 2026-05-06 21:39 | 40.78079 | -73.87455 | 21 ft | 128 kts | 208° |
| 2026-05-06 21:39 | 40.77482 | -73.87943 | 27 ft | 60 kts | 211° |
| 2026-05-06 21:39 | 40.77231 | -73.88136 | 27 ft | 38 kts | 212° |
| 2026-05-06 21:39 | 40.77080 | -73.88237 | 29 ft | 11 kts | 153° |
| 2026-05-06 21:40 | 40.77076 | -73.88142 | 28 ft | 14 kts | 39° |
| 2026-05-06 21:40 | 40.77160 | -73.88059 | 27 ft | 16 kts | 33° |
| 2026-05-06 21:40 | 40.77258 | -73.87979 | 27 ft | 18 kts | 32° |
| 2026-05-06 21:40 | 40.77371 | -73.87885 | 27 ft | 20 kts | 32° |
| 2026-05-06 21:41 | 40.77489 | -73.87790 | 28 ft | 20 kts | 30° |
| 2026-05-06 21:41 | 40.77613 | -73.87693 | 27 ft | 21 kts | 30° |
| 2026-05-06 21:41 | 40.77729 | -73.87599 | 28 ft | 19 kts | 33° |
| 2026-05-06 21:41 | 40.77818 | -73.87463 | 22 ft | 19 kts | 79° |
| 2026-05-06 21:42 | 40.77835 | -73.87306 | 23 ft | 17 kts | 91° |
| 2026-05-06 21:42 | 40.77791 | -73.87171 | 20 ft | 18 kts | 123° |
| 2026-05-06 21:42 | 40.77743 | -73.87080 | 20 ft | 9 kts | 125° |
| 2026-05-06 21:42 | 40.77706 | -73.87003 | 18 ft | 11 kts | 120° |
| 2026-05-06 21:43 | 40.77669 | -73.86984 | 17 ft | 7 kts | 176° |
| 2026-05-06 21:43 | 40.77642 | -73.86980 | 18 ft | 4 kts | 120° |
| 2026-05-06 21:43 | 40.77621 | -73.86935 | 16 ft | 7 kts | 121° |
| 2026-05-06 21:43 | 40.77592 | -73.86873 | 16 ft | 8 kts | 122° |
| 2026-05-06 21:44 | 40.77558 | -73.86804 | 16 ft | 10 kts | 123° |
| 2026-05-06 21:44 | 40.77552 | -73.86792 | 15 ft | 10 kts | 123° |
| 2026-05-06 21:47 | 40.77522 | -73.86732 | 13 ft | 12 kts | 129° |
| 2026-05-06 21:48 | 40.77460 | -73.86696 | 13 ft | 9 kts | 226° |
| 2026-05-06 21:48 | 40.77451 | -73.86707 | 14 ft | 2 kts | 226° |
| 2026-05-06 21:48 | 40.77446 | -73.86714 | 13 ft | 0 kts | 226° |
| 2026-05-06 21:48 | 40.77419 | -73.86753 | 14 ft | 10 kts | 227° |
| 2026-05-06 21:49 | 40.77377 | -73.86817 | 18 ft | 7 kts | 227° |
| 2026-05-06 21:49 | 40.77373 | -73.86822 | 17 ft | 0 kts | 227° |